sensor_id;sensor_type;location;lat;lon;timestamp;temperature;humidity
54202;DHT22;40108;53.152;5.844;2023-04-06T00:01:10;3.20;71.90
54202;DHT22;40108;53.152;5.844;2023-04-06T00:03:36;3.20;71.90
54202;DHT22;40108;53.152;5.844;2023-04-06T00:06:02;3.20;72.00
54202;DHT22;40108;53.152;5.844;2023-04-06T00:08:27;3.20;71.90
54202;DHT22;40108;53.152;5.844;2023-04-06T00:10:54;3.20;72.10
54202;DHT22;40108;53.152;5.844;2023-04-06T00:13:20;3.20;72.10
54202;DHT22;40108;53.152;5.844;2023-04-06T00:15:46;3.10;72.30
54202;DHT22;40108;53.152;5.844;2023-04-06T00:18:12;3.00;72.30
54202;DHT22;40108;53.152;5.844;2023-04-06T00:20:38;3.00;72.30
54202;DHT22;40108;53.152;5.844;2023-04-06T00:23:04;3.00;72.20
54202;DHT22;40108;53.152;5.844;2023-04-06T00:25:30;3.00;72.30
54202;DHT22;40108;53.152;5.844;2023-04-06T00:27:55;3.00;72.30
54202;DHT22;40108;53.152;5.844;2023-04-06T00:30:21;3.00;72.20
54202;DHT22;40108;53.152;5.844;2023-04-06T00:32:47;3.00;72.10
54202;DHT22;40108;53.152;5.844;2023-04-06T00:35:13;3.00;72.00
54202;DHT22;40108;53.152;5.844;2023-04-06T00:37:40;3.00;71.80
54202;DHT22;40108;53.152;5.844;2023-04-06T00:40:06;3.10;71.80
54202;DHT22;40108;53.152;5.844;2023-04-06T00:42:32;3.10;71.80
54202;DHT22;40108;53.152;5.844;2023-04-06T00:45:00;3.20;71.70
54202;DHT22;40108;53.152;5.844;2023-04-06T00:47:26;3.20;71.70
54202;DHT22;40108;53.152;5.844;2023-04-06T00:49:53;3.20;71.90
54202;DHT22;40108;53.152;5.844;2023-04-06T00:52:19;3.10;72.00
54202;DHT22;40108;53.152;5.844;2023-04-06T00:54:45;3.10;72.30
54202;DHT22;40108;53.152;5.844;2023-04-06T00:57:12;3.00;72.40
54202;DHT22;40108;53.152;5.844;2023-04-06T00:59:38;3.00;72.60
54202;DHT22;40108;53.152;5.844;2023-04-06T01:02:04;2.90;73.00
54202;DHT22;40108;53.152;5.844;2023-04-06T01:04:31;2.80;73.10
54202;DHT22;40108;53.152;5.844;2023-04-06T01:06:56;2.90;73.20
54202;DHT22;40108;53.152;5.844;2023-04-06T01:09:22;2.80;73.30
54202;DHT22;40108;53.152;5.844;2023-04-06T01:11:48;2.80;73.30
54202;DHT22;40108;53.152;5.844;2023-04-06T01:14:14;2.80;73.40
54202;DHT22;40108;53.152;5.844;2023-04-06T01:16:40;2.80;73.50
54202;DHT22;40108;53.152;5.844;2023-04-06T01:19:10;2.80;73.60
54202;DHT22;40108;53.152;5.844;2023-04-06T01:21:38;2.70;73.70
54202;DHT22;40108;53.152;5.844;2023-04-06T01:24:04;2.70;73.60
54202;DHT22;40108;53.152;5.844;2023-04-06T01:26:31;2.70;73.50
54202;DHT22;40108;53.152;5.844;2023-04-06T01:28:57;2.70;73.30
54202;DHT22;40108;53.152;5.844;2023-04-06T01:31:23;2.80;73.40
54202;DHT22;40108;53.152;5.844;2023-04-06T01:33:49;2.80;73.40
54202;DHT22;40108;53.152;5.844;2023-04-06T01:36:15;2.70;73.40
54202;DHT22;40108;53.152;5.844;2023-04-06T01:38:41;2.70;73.50
54202;DHT22;40108;53.152;5.844;2023-04-06T01:41:07;2.70;73.50
54202;DHT22;40108;53.152;5.844;2023-04-06T01:43:33;2.70;73.50
54202;DHT22;40108;53.152;5.844;2023-04-06T01:45:58;2.60;73.60
54202;DHT22;40108;53.152;5.844;2023-04-06T01:48:25;2.60;73.60
54202;DHT22;40108;53.152;5.844;2023-04-06T01:50:51;2.60;73.60
54202;DHT22;40108;53.152;5.844;2023-04-06T01:53:16;2.60;73.70
54202;DHT22;40108;53.152;5.844;2023-04-06T01:55:42;2.60;73.70
54202;DHT22;40108;53.152;5.844;2023-04-06T01:58:08;2.60;73.90
54202;DHT22;40108;53.152;5.844;2023-04-06T02:00:33;2.50;73.80
54202;DHT22;40108;53.152;5.844;2023-04-06T02:02:59;2.50;73.80
54202;DHT22;40108;53.152;5.844;2023-04-06T02:05:25;2.50;73.80
54202;DHT22;40108;53.152;5.844;2023-04-06T02:07:51;2.50;73.80
54202;DHT22;40108;53.152;5.844;2023-04-06T02:10:17;2.50;73.90
54202;DHT22;40108;53.152;5.844;2023-04-06T02:12:43;2.50;73.80
54202;DHT22;40108;53.152;5.844;2023-04-06T02:15:09;2.50;73.80
54202;DHT22;40108;53.152;5.844;2023-04-06T02:17:35;2.50;73.90
54202;DHT22;40108;53.152;5.844;2023-04-06T02:20:01;2.50;74.00
54202;DHT22;40108;53.152;5.844;2023-04-06T02:22:26;2.50;74.10
54202;DHT22;40108;53.152;5.844;2023-04-06T02:24:52;2.50;74.20
54202;DHT22;40108;53.152;5.844;2023-04-06T02:27:18;2.40;74.30
54202;DHT22;40108;53.152;5.844;2023-04-06T02:29:43;2.40;74.50
54202;DHT22;40108;53.152;5.844;2023-04-06T02:32:09;2.30;74.70
54202;DHT22;40108;53.152;5.844;2023-04-06T02:34:35;2.30;74.80
54202;DHT22;40108;53.152;5.844;2023-04-06T02:37:01;2.30;74.90
54202;DHT22;40108;53.152;5.844;2023-04-06T02:39:27;2.20;75.00
54202;DHT22;40108;53.152;5.844;2023-04-06T02:41:52;2.20;75.10
54202;DHT22;40108;53.152;5.844;2023-04-06T02:44:18;2.20;75.10
54202;DHT22;40108;53.152;5.844;2023-04-06T02:46:44;2.10;75.20
54202;DHT22;40108;53.152;5.844;2023-04-06T02:49:09;2.10;75.40
54202;DHT22;40108;53.152;5.844;2023-04-06T02:51:35;2.00;75.50
54202;DHT22;40108;53.152;5.844;2023-04-06T02:54:01;2.00;75.70
54202;DHT22;40108;53.152;5.844;2023-04-06T02:56:27;2.00;75.90
54202;DHT22;40108;53.152;5.844;2023-04-06T02:58:52;1.90;76.10
54202;DHT22;40108;53.152;5.844;2023-04-06T03:01:18;1.90;76.10
54202;DHT22;40108;53.152;5.844;2023-04-06T03:03:44;1.90;76.30
54202;DHT22;40108;53.152;5.844;2023-04-06T03:06:10;1.80;76.40
54202;DHT22;40108;53.152;5.844;2023-04-06T03:08:35;1.80;76.60
54202;DHT22;40108;53.152;5.844;2023-04-06T03:11:01;1.70;76.90
54202;DHT22;40108;53.152;5.844;2023-04-06T03:13:27;1.70;77.00
54202;DHT22;40108;53.152;5.844;2023-04-06T03:15:53;1.70;77.10
54202;DHT22;40108;53.152;5.844;2023-04-06T03:18:22;1.70;77.00
54202;DHT22;40108;53.152;5.844;2023-04-06T03:20:48;1.70;77.10
54202;DHT22;40108;53.152;5.844;2023-04-06T03:23:14;1.70;77.20
54202;DHT22;40108;53.152;5.844;2023-04-06T03:25:40;1.70;77.20
54202;DHT22;40108;53.152;5.844;2023-04-06T03:28:05;1.70;77.20
54202;DHT22;40108;53.152;5.844;2023-04-06T03:30:31;1.70;77.10
54202;DHT22;40108;53.152;5.844;2023-04-06T03:32:57;1.70;77.10
54202;DHT22;40108;53.152;5.844;2023-04-06T03:35:24;1.60;77.10
54202;DHT22;40108;53.152;5.844;2023-04-06T03:37:49;1.60;77.30
54202;DHT22;40108;53.152;5.844;2023-04-06T03:40:15;1.50;77.30
54202;DHT22;40108;53.152;5.844;2023-04-06T03:42:41;1.60;77.30
54202;DHT22;40108;53.152;5.844;2023-04-06T03:45:07;1.60;77.30
54202;DHT22;40108;53.152;5.844;2023-04-06T03:47:33;1.50;77.40
54202;DHT22;40108;53.152;5.844;2023-04-06T03:49:59;1.50;77.40
54202;DHT22;40108;53.152;5.844;2023-04-06T03:52:25;1.50;77.70
54202;DHT22;40108;53.152;5.844;2023-04-06T03:54:51;1.50;77.70
54202;DHT22;40108;53.152;5.844;2023-04-06T03:57:17;1.50;77.70
54202;DHT22;40108;53.152;5.844;2023-04-06T03:59:43;1.50;77.90
54202;DHT22;40108;53.152;5.844;2023-04-06T04:02:09;1.50;78.00
54202;DHT22;40108;53.152;5.844;2023-04-06T04:04:34;1.50;78.20
54202;DHT22;40108;53.152;5.844;2023-04-06T04:07:00;1.40;78.30
54202;DHT22;40108;53.152;5.844;2023-04-06T04:09:26;1.40;78.30
54202;DHT22;40108;53.152;5.844;2023-04-06T04:11:51;1.30;78.30
54202;DHT22;40108;53.152;5.844;2023-04-06T04:14:17;1.40;78.30
54202;DHT22;40108;53.152;5.844;2023-04-06T04:16:43;1.30;78.40
54202;DHT22;40108;53.152;5.844;2023-04-06T04:19:08;1.30;78.40
54202;DHT22;40108;53.152;5.844;2023-04-06T04:21:43;1.30;78.30
54202;DHT22;40108;53.152;5.844;2023-04-06T04:24:10;1.30;78.40
54202;DHT22;40108;53.152;5.844;2023-04-06T04:26:36;1.30;78.40
54202;DHT22;40108;53.152;5.844;2023-04-06T04:29:01;1.20;78.50
54202;DHT22;40108;53.152;5.844;2023-04-06T04:31:27;1.30;78.50
54202;DHT22;40108;53.152;5.844;2023-04-06T04:33:53;1.30;78.60
54202;DHT22;40108;53.152;5.844;2023-04-06T04:36:18;1.30;78.60
54202;DHT22;40108;53.152;5.844;2023-04-06T04:38:44;1.20;78.70
54202;DHT22;40108;53.152;5.844;2023-04-06T04:41:10;1.30;78.70
54202;DHT22;40108;53.152;5.844;2023-04-06T04:43:36;1.30;78.90
54202;DHT22;40108;53.152;5.844;2023-04-06T04:46:01;1.30;78.80
54202;DHT22;40108;53.152;5.844;2023-04-06T04:48:27;1.30;78.70
54202;DHT22;40108;53.152;5.844;2023-04-06T04:50:53;1.40;78.60
54202;DHT22;40108;53.152;5.844;2023-04-06T04:53:20;1.40;78.50
54202;DHT22;40108;53.152;5.844;2023-04-06T04:55:46;1.50;78.40
54202;DHT22;40108;53.152;5.844;2023-04-06T04:58:12;1.50;78.30
54202;DHT22;40108;53.152;5.844;2023-04-06T05:00:42;1.50;78.20
54202;DHT22;40108;53.152;5.844;2023-04-06T05:03:08;1.50;78.20
54202;DHT22;40108;53.152;5.844;2023-04-06T05:05:35;1.60;78.30
54202;DHT22;40108;53.152;5.844;2023-04-06T05:08:01;1.60;78.30
54202;DHT22;40108;53.152;5.844;2023-04-06T05:10:27;1.60;78.30
54202;DHT22;40108;53.152;5.844;2023-04-06T05:12:52;1.70;78.40
54202;DHT22;40108;53.152;5.844;2023-04-06T05:15:18;1.60;78.40
54202;DHT22;40108;53.152;5.844;2023-04-06T05:17:44;1.70;78.40
54202;DHT22;40108;53.152;5.844;2023-04-06T05:20:10;1.70;78.50
54202;DHT22;40108;53.152;5.844;2023-04-06T05:22:36;1.60;78.50
54202;DHT22;40108;53.152;5.844;2023-04-06T05:25:03;1.70;78.60
54202;DHT22;40108;53.152;5.844;2023-04-06T05:27:28;1.60;78.80
54202;DHT22;40108;53.152;5.844;2023-04-06T05:29:54;1.60;79.00
54202;DHT22;40108;53.152;5.844;2023-04-06T05:32:20;1.60;79.00
54202;DHT22;40108;53.152;5.844;2023-04-06T05:34:50;1.60;79.00
54202;DHT22;40108;53.152;5.844;2023-04-06T05:37:16;1.60;78.90
54202;DHT22;40108;53.152;5.844;2023-04-06T05:39:41;1.60;79.00
54202;DHT22;40108;53.152;5.844;2023-04-06T05:42:07;1.60;79.20
54202;DHT22;40108;53.152;5.844;2023-04-06T05:44:33;1.60;79.20
54202;DHT22;40108;53.152;5.844;2023-04-06T05:46:59;1.70;79.30
54202;DHT22;40108;53.152;5.844;2023-04-06T05:49:24;1.70;79.20
54202;DHT22;40108;53.152;5.844;2023-04-06T05:51:50;1.80;78.70
54202;DHT22;40108;53.152;5.844;2023-04-06T05:54:16;1.80;78.60
54202;DHT22;40108;53.152;5.844;2023-04-06T05:56:42;1.90;78.60
54202;DHT22;40108;53.152;5.844;2023-04-06T05:59:08;1.90;78.60
54202;DHT22;40108;53.152;5.844;2023-04-06T06:01:34;2.00;78.60
54202;DHT22;40108;53.152;5.844;2023-04-06T06:04:01;2.00;78.60
54202;DHT22;40108;53.152;5.844;2023-04-06T06:06:27;2.10;78.50
54202;DHT22;40108;53.152;5.844;2023-04-06T06:08:54;2.10;78.20
54202;DHT22;40108;53.152;5.844;2023-04-06T06:11:21;2.20;78.30
54202;DHT22;40108;53.152;5.844;2023-04-06T06:13:46;2.20;78.20
54202;DHT22;40108;53.152;5.844;2023-04-06T06:16:12;2.30;78.20
54202;DHT22;40108;53.152;5.844;2023-04-06T06:18:38;2.40;78.20
54202;DHT22;40108;53.152;5.844;2023-04-06T06:21:03;2.40;78.00
54202;DHT22;40108;53.152;5.844;2023-04-06T06:23:29;2.50;77.80
54202;DHT22;40108;53.152;5.844;2023-04-06T06:25:55;2.60;77.70
54202;DHT22;40108;53.152;5.844;2023-04-06T06:28:23;2.70;77.60
54202;DHT22;40108;53.152;5.844;2023-04-06T06:30:50;2.80;77.40
54202;DHT22;40108;53.152;5.844;2023-04-06T06:33:16;2.90;77.60
54202;DHT22;40108;53.152;5.844;2023-04-06T06:35:42;3.00;77.10
54202;DHT22;40108;53.152;5.844;2023-04-06T06:38:09;3.00;76.60
54202;DHT22;40108;53.152;5.844;2023-04-06T06:40:35;3.20;77.00
54202;DHT22;40108;53.152;5.844;2023-04-06T06:43:00;3.20;76.60
54202;DHT22;40108;53.152;5.844;2023-04-06T06:45:26;3.20;76.00
54202;DHT22;40108;53.152;5.844;2023-04-06T06:47:52;3.30;75.50
54202;DHT22;40108;53.152;5.844;2023-04-06T06:50:17;3.50;75.50
54202;DHT22;40108;53.152;5.844;2023-04-06T06:52:43;3.60;75.30
54202;DHT22;40108;53.152;5.844;2023-04-06T06:55:10;3.80;75.30
54202;DHT22;40108;53.152;5.844;2023-04-06T06:57:36;3.90;74.80
54202;DHT22;40108;53.152;5.844;2023-04-06T07:00:02;4.10;73.70
54202;DHT22;40108;53.152;5.844;2023-04-06T07:02:30;4.20;73.90
54202;DHT22;40108;53.152;5.844;2023-04-06T07:04:56;4.40;72.50
54202;DHT22;40108;53.152;5.844;2023-04-06T07:07:22;4.70;71.80
54202;DHT22;40108;53.152;5.844;2023-04-06T07:09:48;4.80;71.60
54202;DHT22;40108;53.152;5.844;2023-04-06T07:12:13;4.90;71.00
54202;DHT22;40108;53.152;5.844;2023-04-06T07:14:39;5.00;71.30
54202;DHT22;40108;53.152;5.844;2023-04-06T07:17:06;4.90;70.60
54202;DHT22;40108;53.152;5.844;2023-04-06T07:19:31;5.00;70.50
54202;DHT22;40108;53.152;5.844;2023-04-06T07:21:57;5.00;70.80
54202;DHT22;40108;53.152;5.844;2023-04-06T07:24:23;5.00;71.20
54202;DHT22;40108;53.152;5.844;2023-04-06T07:26:48;5.00;71.30
54202;DHT22;40108;53.152;5.844;2023-04-06T07:29:14;5.10;71.70
54202;DHT22;40108;53.152;5.844;2023-04-06T07:31:40;5.20;72.20
54202;DHT22;40108;53.152;5.844;2023-04-06T07:34:06;5.20;72.20
54202;DHT22;40108;53.152;5.844;2023-04-06T07:36:31;5.30;72.80
54202;DHT22;40108;53.152;5.844;2023-04-06T07:38:57;5.50;71.80
54202;DHT22;40108;53.152;5.844;2023-04-06T07:41:23;5.60;71.20
54202;DHT22;40108;53.152;5.844;2023-04-06T07:43:49;5.70;71.00
54202;DHT22;40108;53.152;5.844;2023-04-06T07:46:15;5.90;70.50
54202;DHT22;40108;53.152;5.844;2023-04-06T07:48:40;6.00;70.70
54202;DHT22;40108;53.152;5.844;2023-04-06T07:51:06;6.10;69.80
54202;DHT22;40108;53.152;5.844;2023-04-06T07:53:32;6.20;69.00
54202;DHT22;40108;53.152;5.844;2023-04-06T07:55:58;6.20;68.90
54202;DHT22;40108;53.152;5.844;2023-04-06T07:58:24;6.30;68.40
54202;DHT22;40108;53.152;5.844;2023-04-06T08:00:50;6.40;68.60
54202;DHT22;40108;53.152;5.844;2023-04-06T08:03:16;6.50;68.60
54202;DHT22;40108;53.152;5.844;2023-04-06T08:05:42;6.70;67.80
54202;DHT22;40108;53.152;5.844;2023-04-06T08:08:08;7.10;67.60
54202;DHT22;40108;53.152;5.844;2023-04-06T08:10:34;7.40;67.10
54202;DHT22;40108;53.152;5.844;2023-04-06T08:13:00;7.60;64.00
54202;DHT22;40108;53.152;5.844;2023-04-06T08:15:26;7.80;63.60
54202;DHT22;40108;53.152;5.844;2023-04-06T08:17:52;8.00;64.00
54202;DHT22;40108;53.152;5.844;2023-04-06T08:20:17;8.00;62.90
54202;DHT22;40108;53.152;5.844;2023-04-06T08:22:43;8.20;62.00
54202;DHT22;40108;53.152;5.844;2023-04-06T08:25:09;8.30;61.10
54202;DHT22;40108;53.152;5.844;2023-04-06T08:27:35;8.60;60.60
54202;DHT22;40108;53.152;5.844;2023-04-06T08:30:00;8.90;61.20
54202;DHT22;40108;53.152;5.844;2023-04-06T08:32:27;9.10;59.80
54202;DHT22;40108;53.152;5.844;2023-04-06T08:34:55;9.20;59.60
54202;DHT22;40108;53.152;5.844;2023-04-06T08:37:22;9.20;59.60
54202;DHT22;40108;53.152;5.844;2023-04-06T08:39:47;9.20;60.40
54202;DHT22;40108;53.152;5.844;2023-04-06T08:42:20;9.10;58.60
54202;DHT22;40108;53.152;5.844;2023-04-06T08:44:48;9.10;59.60
54202;DHT22;40108;53.152;5.844;2023-04-06T08:47:14;9.20;59.80
54202;DHT22;40108;53.152;5.844;2023-04-06T08:49:40;9.10;59.60
54202;DHT22;40108;53.152;5.844;2023-04-06T08:52:07;9.10;60.50
54202;DHT22;40108;53.152;5.844;2023-04-06T08:54:34;9.20;60.50
54202;DHT22;40108;53.152;5.844;2023-04-06T08:57:00;9.20;61.30
54202;DHT22;40108;53.152;5.844;2023-04-06T08:59:27;9.30;61.60
54202;DHT22;40108;53.152;5.844;2023-04-06T09:01:53;9.30;59.40
54202;DHT22;40108;53.152;5.844;2023-04-06T09:04:20;9.30;58.80
54202;DHT22;40108;53.152;5.844;2023-04-06T09:06:47;9.40;59.40
54202;DHT22;40108;53.152;5.844;2023-04-06T09:09:12;9.60;59.00
54202;DHT22;40108;53.152;5.844;2023-04-06T09:11:46;9.80;58.50
54202;DHT22;40108;53.152;5.844;2023-04-06T09:14:12;9.90;55.50
54202;DHT22;40108;53.152;5.844;2023-04-06T09:16:42;9.80;55.30
54202;DHT22;40108;53.152;5.844;2023-04-06T09:19:09;9.80;54.70
54202;DHT22;40108;53.152;5.844;2023-04-06T09:21:36;9.70;54.90
54202;DHT22;40108;53.152;5.844;2023-04-06T09:24:03;9.90;56.50
54202;DHT22;40108;53.152;5.844;2023-04-06T09:26:29;10.10;56.10
54202;DHT22;40108;53.152;5.844;2023-04-06T09:28:57;10.20;55.20
54202;DHT22;40108;53.152;5.844;2023-04-06T09:31:25;10.40;55.60
54202;DHT22;40108;53.152;5.844;2023-04-06T09:33:52;10.60;55.90
54202;DHT22;40108;53.152;5.844;2023-04-06T09:36:18;10.70;55.80
54202;DHT22;40108;53.152;5.844;2023-04-06T09:38:55;10.80;54.70
54202;DHT22;40108;53.152;5.844;2023-04-06T09:41:23;10.90;55.50
54202;DHT22;40108;53.152;5.844;2023-04-06T09:43:51;10.80;54.00
54202;DHT22;40108;53.152;5.844;2023-04-06T09:46:17;10.70;53.90
54202;DHT22;40108;53.152;5.844;2023-04-06T09:48:47;10.60;54.30
54202;DHT22;40108;53.152;5.844;2023-04-06T09:51:14;10.70;53.60
54202;DHT22;40108;53.152;5.844;2023-04-06T09:53:42;10.80;55.70
54202;DHT22;40108;53.152;5.844;2023-04-06T09:56:12;10.90;54.50
54202;DHT22;40108;53.152;5.844;2023-04-06T09:58:43;10.80;52.00
54202;DHT22;40108;53.152;5.844;2023-04-06T10:01:13;10.70;52.20
54202;DHT22;40108;53.152;5.844;2023-04-06T10:04:16;10.80;53.60
54202;DHT22;40108;53.152;5.844;2023-04-06T10:06:46;10.80;51.80
54202;DHT22;40108;53.152;5.844;2023-04-06T10:09:17;10.80;52.60
54202;DHT22;40108;53.152;5.844;2023-04-06T10:11:43;10.90;54.60
54202;DHT22;40108;53.152;5.844;2023-04-06T10:14:10;10.80;52.80
54202;DHT22;40108;53.152;5.844;2023-04-06T10:16:37;10.70;52.50
54202;DHT22;40108;53.152;5.844;2023-04-06T10:19:13;10.70;54.30
54202;DHT22;40108;53.152;5.844;2023-04-06T10:21:40;10.80;53.50
54202;DHT22;40108;53.152;5.844;2023-04-06T10:24:09;10.80;53.00
54202;DHT22;40108;53.152;5.844;2023-04-06T10:26:39;10.80;53.70
54202;DHT22;40108;53.152;5.844;2023-04-06T10:29:05;10.90;54.30
54202;DHT22;40108;53.152;5.844;2023-04-06T10:31:32;10.80;53.40
54202;DHT22;40108;53.152;5.844;2023-04-06T10:36:27;10.90;52.70
54202;DHT22;40108;53.152;5.844;2023-04-06T10:38:57;11.00;53.00
54202;DHT22;40108;53.152;5.844;2023-04-06T10:41:24;11.10;53.00
54202;DHT22;40108;53.152;5.844;2023-04-06T10:43:57;11.20;52.50
54202;DHT22;40108;53.152;5.844;2023-04-06T10:46:29;11.20;53.60
54202;DHT22;40108;53.152;5.844;2023-04-06T10:48:55;11.20;53.70
54202;DHT22;40108;53.152;5.844;2023-04-06T10:51:26;11.20;53.40
54202;DHT22;40108;53.152;5.844;2023-04-06T10:53:53;11.20;54.30
54202;DHT22;40108;53.152;5.844;2023-04-06T10:56:22;11.30;54.00
54202;DHT22;40108;53.152;5.844;2023-04-06T10:58:51;11.20;54.50
54202;DHT22;40108;53.152;5.844;2023-04-06T11:01:18;11.20;55.00
54202;DHT22;40108;53.152;5.844;2023-04-06T11:03:45;11.30;54.80
54202;DHT22;40108;53.152;5.844;2023-04-06T11:06:18;11.20;54.30
54202;DHT22;40108;53.152;5.844;2023-04-06T11:08:44;11.30;55.80
54202;DHT22;40108;53.152;5.844;2023-04-06T11:11:11;11.40;54.80
54202;DHT22;40108;53.152;5.844;2023-04-06T11:13:41;11.40;54.10
54202;DHT22;40108;53.152;5.844;2023-04-06T11:16:11;11.40;55.90
54202;DHT22;40108;53.152;5.844;2023-04-06T11:18:37;11.50;56.20
54202;DHT22;40108;53.152;5.844;2023-04-06T11:21:03;11.40;54.30
54202;DHT22;40108;53.152;5.844;2023-04-06T11:23:29;11.50;55.30
54202;DHT22;40108;53.152;5.844;2023-04-06T11:25:54;11.40;53.60
54202;DHT22;40108;53.152;5.844;2023-04-06T11:28:20;11.40;55.10
54202;DHT22;40108;53.152;5.844;2023-04-06T11:30:46;11.30;54.90
54202;DHT22;40108;53.152;5.844;2023-04-06T11:33:20;11.30;54.80
54202;DHT22;40108;53.152;5.844;2023-04-06T11:35:48;11.40;54.50
54202;DHT22;40108;53.152;5.844;2023-04-06T11:38:14;11.40;55.00
54202;DHT22;40108;53.152;5.844;2023-04-06T11:40:39;11.50;55.10
54202;DHT22;40108;53.152;5.844;2023-04-06T11:43:06;11.50;56.00
54202;DHT22;40108;53.152;5.844;2023-04-06T11:45:42;11.50;56.10
54202;DHT22;40108;53.152;5.844;2023-04-06T11:48:18;11.50;55.30
54202;DHT22;40108;53.152;5.844;2023-04-06T11:50:47;11.50;57.00
54202;DHT22;40108;53.152;5.844;2023-04-06T11:53:14;11.40;56.50
54202;DHT22;40108;53.152;5.844;2023-04-06T11:55:39;11.40;56.70
54202;DHT22;40108;53.152;5.844;2023-04-06T11:58:06;11.50;58.20
54202;DHT22;40108;53.152;5.844;2023-04-06T12:00:32;11.60;57.50
54202;DHT22;40108;53.152;5.844;2023-04-06T12:03:00;11.70;57.00
54202;DHT22;40108;53.152;5.844;2023-04-06T12:05:26;11.70;56.10
54202;DHT22;40108;53.152;5.844;2023-04-06T12:07:52;11.70;57.90
54202;DHT22;40108;53.152;5.844;2023-04-06T12:10:18;11.70;58.30
54202;DHT22;40108;53.152;5.844;2023-04-06T12:12:43;11.70;58.50
54202;DHT22;40108;53.152;5.844;2023-04-06T12:15:10;11.70;57.50
54202;DHT22;40108;53.152;5.844;2023-04-06T12:17:36;11.60;57.00
54202;DHT22;40108;53.152;5.844;2023-04-06T12:20:02;11.60;57.80
54202;DHT22;40108;53.152;5.844;2023-04-06T12:22:28;11.40;59.90
54202;DHT22;40108;53.152;5.844;2023-04-06T12:24:54;11.30;60.40
54202;DHT22;40108;53.152;5.844;2023-04-06T12:27:19;11.20;60.90
54202;DHT22;40108;53.152;5.844;2023-04-06T12:29:45;11.20;62.00
54202;DHT22;40108;53.152;5.844;2023-04-06T12:32:11;11.20;62.50
54202;DHT22;40108;53.152;5.844;2023-04-06T12:34:37;11.30;64.20
54202;DHT22;40108;53.152;5.844;2023-04-06T12:37:03;11.30;64.00
54202;DHT22;40108;53.152;5.844;2023-04-06T12:39:29;11.30;64.10
54202;DHT22;40108;53.152;5.844;2023-04-06T12:41:55;11.20;64.70
54202;DHT22;40108;53.152;5.844;2023-04-06T12:44:22;11.20;66.40
54202;DHT22;40108;53.152;5.844;2023-04-06T12:46:48;11.20;67.30
54202;DHT22;40108;53.152;5.844;2023-04-06T12:49:15;11.20;68.90
54202;DHT22;40108;53.152;5.844;2023-04-06T12:51:42;11.20;71.10
54202;DHT22;40108;53.152;5.844;2023-04-06T12:54:08;11.20;71.80
54202;DHT22;40108;53.152;5.844;2023-04-06T12:56:34;11.20;70.40
54202;DHT22;40108;53.152;5.844;2023-04-06T12:59:00;11.10;70.40
54202;DHT22;40108;53.152;5.844;2023-04-06T13:01:26;10.90;71.40
54202;DHT22;40108;53.152;5.844;2023-04-06T13:03:53;10.80;69.70
54202;DHT22;40108;53.152;5.844;2023-04-06T13:06:19;10.70;69.50
54202;DHT22;40108;53.152;5.844;2023-04-06T13:08:44;10.60;70.50
54202;DHT22;40108;53.152;5.844;2023-04-06T13:11:12;10.50;70.80
54202;DHT22;40108;53.152;5.844;2023-04-06T13:13:38;10.50;72.20
54202;DHT22;40108;53.152;5.844;2023-04-06T13:16:08;10.30;73.10
54202;DHT22;40108;53.152;5.844;2023-04-06T13:18:35;10.20;73.30
54202;DHT22;40108;53.152;5.844;2023-04-06T13:21:02;10.00;72.60
54202;DHT22;40108;53.152;5.844;2023-04-06T13:23:28;9.90;72.70
54202;DHT22;40108;53.152;5.844;2023-04-06T13:26:06;9.70;73.20
54202;DHT22;40108;53.152;5.844;2023-04-06T13:28:33;9.70;74.50
54202;DHT22;40108;53.152;5.844;2023-04-06T13:31:01;9.50;76.40
54202;DHT22;40108;53.152;5.844;2023-04-06T13:33:28;9.50;78.50
54202;DHT22;40108;53.152;5.844;2023-04-06T13:35:54;9.40;79.30
54202;DHT22;40108;53.152;5.844;2023-04-06T13:38:20;9.30;80.70
54202;DHT22;40108;53.152;5.844;2023-04-06T13:40:46;9.20;80.60
54202;DHT22;40108;53.152;5.844;2023-04-06T13:43:12;9.10;80.80
54202;DHT22;40108;53.152;5.844;2023-04-06T13:45:38;8.90;81.60
54202;DHT22;40108;53.152;5.844;2023-04-06T13:48:04;8.80;82.40
54202;DHT22;40108;53.152;5.844;2023-04-06T13:50:30;8.70;82.80
54202;DHT22;40108;53.152;5.844;2023-04-06T13:52:56;8.70;83.10
54202;DHT22;40108;53.152;5.844;2023-04-06T13:55:22;8.70;84.50
54202;DHT22;40108;53.152;5.844;2023-04-06T13:57:50;8.70;84.70
54202;DHT22;40108;53.152;5.844;2023-04-06T14:00:16;8.70;85.00
54202;DHT22;40108;53.152;5.844;2023-04-06T14:02:42;8.70;85.70
54202;DHT22;40108;53.152;5.844;2023-04-06T14:05:08;8.70;85.00
54202;DHT22;40108;53.152;5.844;2023-04-06T14:07:34;8.70;85.00
54202;DHT22;40108;53.152;5.844;2023-04-06T14:09:59;8.60;85.50
54202;DHT22;40108;53.152;5.844;2023-04-06T14:12:25;8.50;85.30
54202;DHT22;40108;53.152;5.844;2023-04-06T14:14:52;8.50;86.50
54202;DHT22;40108;53.152;5.844;2023-04-06T14:17:18;8.50;86.50
54202;DHT22;40108;53.152;5.844;2023-04-06T14:19:43;8.50;87.20
54202;DHT22;40108;53.152;5.844;2023-04-06T14:22:09;8.40;87.40
54202;DHT22;40108;53.152;5.844;2023-04-06T14:24:35;8.30;87.70
54202;DHT22;40108;53.152;5.844;2023-04-06T14:27:02;8.30;88.60
54202;DHT22;40108;53.152;5.844;2023-04-06T14:29:28;8.30;89.10
54202;DHT22;40108;53.152;5.844;2023-04-06T14:31:54;8.20;89.50
54202;DHT22;40108;53.152;5.844;2023-04-06T14:34:28;8.30;89.60
54202;DHT22;40108;53.152;5.844;2023-04-06T14:36:55;8.30;89.50
54202;DHT22;40108;53.152;5.844;2023-04-06T14:39:21;8.20;89.80
54202;DHT22;40108;53.152;5.844;2023-04-06T14:41:46;8.30;89.60
54202;DHT22;40108;53.152;5.844;2023-04-06T14:44:15;8.20;89.00
54202;DHT22;40108;53.152;5.844;2023-04-06T14:46:42;8.20;89.00
54202;DHT22;40108;53.152;5.844;2023-04-06T14:49:07;8.20;89.20
54202;DHT22;40108;53.152;5.844;2023-04-06T14:51:36;8.10;89.30
54202;DHT22;40108;53.152;5.844;2023-04-06T14:54:02;8.00;89.20
54202;DHT22;40108;53.152;5.844;2023-04-06T14:56:28;7.90;88.80
54202;DHT22;40108;53.152;5.844;2023-04-06T14:58:57;7.90;88.30
54202;DHT22;40108;53.152;5.844;2023-04-06T15:01:24;7.90;89.00
54202;DHT22;40108;53.152;5.844;2023-04-06T15:03:50;7.80;89.20
54202;DHT22;40108;53.152;5.844;2023-04-06T15:06:17;7.80;89.80
54202;DHT22;40108;53.152;5.844;2023-04-06T15:08:44;7.80;90.30
54202;DHT22;40108;53.152;5.844;2023-04-06T15:11:11;7.80;90.80
54202;DHT22;40108;53.152;5.844;2023-04-06T15:13:37;7.80;91.10
54202;DHT22;40108;53.152;5.844;2023-04-06T15:16:04;7.80;91.00
54202;DHT22;40108;53.152;5.844;2023-04-06T15:18:30;7.70;91.00
54202;DHT22;40108;53.152;5.844;2023-04-06T15:20:56;7.80;91.20
54202;DHT22;40108;53.152;5.844;2023-04-06T15:23:22;7.80;91.20
54202;DHT22;40108;53.152;5.844;2023-04-06T15:25:47;7.80;91.60
54202;DHT22;40108;53.152;5.844;2023-04-06T15:28:13;7.80;91.70
54202;DHT22;40108;53.152;5.844;2023-04-06T15:30:39;7.80;91.70
54202;DHT22;40108;53.152;5.844;2023-04-06T15:33:07;7.70;91.00
54202;DHT22;40108;53.152;5.844;2023-04-06T15:35:33;7.70;91.00
54202;DHT22;40108;53.152;5.844;2023-04-06T15:38:10;7.60;91.00
54202;DHT22;40108;53.152;5.844;2023-04-06T15:40:46;7.60;90.70